createdAt,value
2022-11-14T00:00:52.351Z,11.80
2022-11-14T00:03:45.644Z,11.80
2022-11-14T00:06:35.030Z,11.80
2022-11-14T00:09:36.959Z,11.80
2022-11-14T00:12:27.211Z,11.90
2022-11-14T00:15:18.440Z,11.80
2022-11-14T00:18:08.856Z,11.80
2022-11-14T00:20:56.976Z,11.80
2022-11-14T00:23:47.538Z,11.80
2022-11-14T00:26:38.554Z,11.80
2022-11-14T00:29:31.215Z,11.80
2022-11-14T00:32:25.222Z,11.70
2022-11-14T00:35:15.101Z,11.70
2022-11-14T00:38:04.243Z,11.70
2022-11-14T00:40:54.295Z,11.70
2022-11-14T00:43:44.052Z,11.70
2022-11-14T00:46:39.137Z,11.70
2022-11-14T00:49:34.137Z,11.70
2022-11-14T00:52:23.814Z,11.70
2022-11-14T00:55:11.289Z,11.70
2022-11-14T00:57:57.970Z,11.80
2022-11-14T01:00:48.948Z,11.70
2022-11-14T01:03:39.348Z,11.70
2022-11-14T01:06:28.825Z,11.70
2022-11-14T01:09:19.424Z,11.70
2022-11-14T01:12:09.028Z,11.70
2022-11-14T01:14:56.103Z,11.70
2022-11-14T01:17:47.145Z,11.70
2022-11-14T01:23:59.109Z,11.60
2022-11-14T01:26:47.371Z,11.60
2022-11-14T01:29:40.575Z,11.50
2022-11-14T01:32:31.661Z,11.50
2022-11-14T01:35:21.456Z,11.40
2022-11-14T01:38:16.831Z,11.40
2022-11-14T01:41:10.077Z,11.30
2022-11-14T01:43:57.030Z,11.20
2022-11-14T01:47:00.224Z,11.20
2022-11-14T01:49:51.271Z,11.20
2022-11-14T01:52:43.475Z,11.10
2022-11-14T01:55:38.051Z,11.10
2022-11-14T01:58:30.665Z,11.10
2022-11-14T02:04:36.730Z,11.00
2022-11-14T02:07:31.957Z,11.10
2022-11-14T02:10:23.902Z,11.10
2022-11-14T02:13:19.960Z,11.00
2022-11-14T02:16:08.813Z,11.00
2022-11-14T02:18:59.436Z,10.90
2022-11-14T02:21:47.715Z,10.90
2022-11-14T02:24:40.568Z,10.80
2022-11-14T02:27:35.817Z,10.70
2022-11-14T02:30:28.189Z,10.50
2022-11-14T02:33:19.847Z,10.30
2022-11-14T02:36:16.738Z,10.20
2022-11-14T02:39:06.588Z,10.20
2022-11-14T02:41:58.315Z,10.20
2022-11-14T02:44:47.233Z,10.10
2022-11-14T02:47:38.802Z,10.10
2022-11-14T02:50:30.047Z,10.10
2022-11-14T02:53:19.110Z,10.20
2022-11-14T02:56:11.095Z,10.20
2022-11-14T02:59:02.580Z,10.30
2022-11-14T03:01:51.860Z,10.30
2022-11-14T03:04:43.655Z,10.40
2022-11-14T03:07:35.564Z,10.40
2022-11-14T03:10:24.388Z,10.40
2022-11-14T03:13:18.506Z,10.40
2022-11-14T03:16:13.046Z,10.40
2022-11-14T03:19:02.415Z,10.30
2022-11-14T03:21:52.353Z,10.20
2022-11-14T03:24:41.249Z,10.10
2022-11-14T03:27:27.909Z,10.00
2022-11-14T03:30:17.982Z,10.00
2022-11-14T03:33:10.875Z,10.00
2022-11-14T03:36:00.311Z,10.00
2022-11-14T03:38:50.680Z,10.00
2022-11-14T03:41:45.773Z,9.90
2022-11-14T03:44:36.231Z,9.90
2022-11-14T03:47:24.151Z,9.80
2022-11-14T03:50:12.328Z,9.80
2022-11-14T03:53:01.759Z,9.90
2022-11-14T03:55:50.507Z,9.90
2022-11-14T03:58:41.937Z,9.80
2022-11-14T04:01:31.472Z,9.70
2022-11-14T04:04:22.390Z,9.80
2022-11-14T04:07:12.222Z,9.80
2022-11-14T04:10:01.716Z,9.70
2022-11-14T04:12:55.934Z,9.70
2022-11-14T04:18:48.636Z,9.70
2022-11-14T04:21:36.676Z,9.60
2022-11-14T04:24:23.941Z,9.70
2022-11-14T04:27:12.669Z,9.70
2022-11-14T04:30:02.421Z,9.60
2022-11-14T04:32:51.594Z,9.60
2022-11-14T04:35:41.635Z,9.70
2022-11-14T04:38:28.730Z,9.70
2022-11-14T04:41:17.744Z,9.70
2022-11-14T04:44:07.346Z,9.70
2022-11-14T04:46:57.411Z,9.70
2022-11-14T04:49:49.776Z,9.70
2022-11-14T04:52:38.617Z,9.70
2022-11-14T04:55:29.839Z,9.70
2022-11-14T04:58:18.904Z,9.60
2022-11-14T05:01:17.337Z,9.60
2022-11-14T05:04:05.214Z,9.60
2022-11-14T05:06:55.840Z,9.50
2022-11-14T05:09:45.099Z,9.50
2022-11-14T05:12:34.618Z,9.50
2022-11-14T05:15:24.644Z,9.50
2022-11-14T05:18:16.878Z,9.50
2022-11-14T05:21:04.771Z,9.60
2022-11-14T05:23:52.007Z,9.50
2022-11-14T05:26:42.634Z,9.50
2022-11-14T05:29:29.002Z,9.50
2022-11-14T05:32:22.515Z,9.50
2022-11-14T05:35:10.575Z,9.60
2022-11-14T05:38:04.799Z,9.50
2022-11-14T05:40:55.562Z,9.50
2022-11-14T05:43:46.051Z,9.60
2022-11-14T05:46:35.268Z,9.60
2022-11-14T05:49:24.668Z,9.60
2022-11-14T05:52:12.342Z,9.60
2022-11-14T05:55:03.962Z,9.70
2022-11-14T05:57:51.156Z,9.70
2022-11-14T06:00:50.755Z,9.60
2022-11-14T06:03:47.262Z,9.60
2022-11-14T06:06:34.116Z,9.60
2022-11-14T06:09:24.479Z,9.60
2022-11-14T06:12:13.411Z,9.50
2022-11-14T06:15:05.206Z,9.50
2022-11-14T06:18:04.866Z,9.50
2022-11-14T06:20:55.398Z,9.60
2022-11-14T06:23:44.583Z,9.60
2022-11-14T06:26:38.160Z,9.70
2022-11-14T06:29:32.645Z,9.70
2022-11-14T06:32:27.503Z,9.70
2022-11-14T06:35:18.258Z,9.80
2022-11-14T06:38:07.892Z,9.80
2022-11-14T06:41:18.168Z,9.80
2022-11-14T06:44:08.867Z,9.90
2022-11-14T06:46:59.394Z,9.90
2022-11-14T06:49:50.420Z,9.90
2022-11-14T06:52:37.642Z,10.00
2022-11-14T06:55:27.870Z,10.00
2022-11-14T06:58:38.774Z,10.10
2022-11-14T07:01:27.689Z,10.10
2022-11-14T07:04:15.471Z,10.10
2022-11-14T07:07:05.645Z,10.10
2022-11-14T07:09:55.365Z,10.20
2022-11-14T07:12:44.670Z,10.20
2022-11-14T07:15:35.463Z,10.20
2022-11-14T07:18:23.064Z,10.20
2022-11-14T07:21:13.905Z,10.20
2022-11-14T07:24:03.842Z,10.20
2022-11-14T07:26:50.882Z,10.30
2022-11-14T07:29:40.995Z,10.40
2022-11-14T07:32:28.132Z,10.40
2022-11-14T07:35:45.632Z,10.40
2022-11-14T07:38:35.728Z,10.40
2022-11-14T07:41:25.817Z,10.40
2022-11-14T07:44:13.447Z,10.40
2022-11-14T07:47:01.581Z,10.40
2022-11-14T07:49:51.941Z,10.50
2022-11-14T07:52:41.510Z,10.60
2022-11-14T07:55:30.575Z,10.60
2022-11-14T07:58:20.648Z,10.60
2022-11-14T08:01:12.317Z,10.70
2022-11-14T08:04:00.074Z,10.70
2022-11-14T08:06:49.808Z,10.80
2022-11-14T08:09:40.950Z,10.80
2022-11-14T08:12:31.355Z,10.80
2022-11-14T08:18:23.689Z,10.90
2022-11-14T08:21:14.996Z,11.00
2022-11-14T08:24:04.563Z,11.00
2022-11-14T08:26:54.219Z,11.10
2022-11-14T08:29:42.558Z,11.10
2022-11-14T08:32:33.730Z,11.20
2022-11-14T08:35:24.953Z,11.30
2022-11-14T08:38:12.994Z,11.20
2022-11-14T08:41:04.205Z,11.30
2022-11-14T08:43:53.907Z,11.40
2022-11-14T08:49:48.751Z,11.40
2022-11-14T08:52:36.567Z,11.60
2022-11-14T08:55:27.383Z,11.60
2022-11-14T08:58:14.855Z,11.70
2022-11-14T09:01:08.219Z,11.80
2022-11-14T09:04:00.006Z,11.80
2022-11-14T09:06:50.623Z,11.80
2022-11-14T09:09:42.829Z,11.90
2022-11-14T09:12:31.568Z,11.90
2022-11-14T09:15:22.564Z,11.90
2022-11-14T09:18:13.702Z,12.00
2022-11-14T09:21:09.353Z,12.00
2022-11-14T09:24:01.883Z,12.10
2022-11-14T09:26:57.152Z,12.10
2022-11-14T09:29:44.845Z,12.10
2022-11-14T09:32:37.862Z,12.20
2022-11-14T09:35:26.840Z,12.20
2022-11-14T09:38:15.660Z,12.30
2022-11-14T09:41:36.167Z,12.30
2022-11-14T09:44:58.392Z,12.40
2022-11-14T09:48:10.233Z,12.40
2022-11-14T09:51:23.780Z,12.50
2022-11-14T09:54:27.894Z,12.50
2022-11-14T09:57:18.790Z,12.60
2022-11-14T10:00:25.122Z,12.60
2022-11-14T10:03:30.322Z,12.70
2022-11-14T10:06:36.439Z,12.70
2022-11-14T10:09:34.865Z,12.80
2022-11-14T10:12:36.483Z,12.80
2022-11-14T10:16:00.951Z,12.90
2022-11-14T10:19:02.402Z,12.90
2022-11-14T10:22:23.274Z,13.00
2022-11-14T10:25:42.626Z,13.00
2022-11-14T10:29:13.240Z,13.10
2022-11-14T10:33:00.406Z,13.20
2022-11-14T10:36:05.341Z,13.20
2022-11-14T10:39:08.310Z,13.30
2022-11-14T10:42:09.570Z,13.30
2022-11-14T10:45:26.009Z,13.40
2022-11-14T10:48:31.873Z,13.50
2022-11-14T10:51:46.773Z,13.60
2022-11-14T10:54:53.183Z,13.70
2022-11-14T10:57:40.703Z,13.70
2022-11-14T11:00:27.489Z,13.70
2022-11-14T11:03:17.578Z,13.80
2022-11-14T11:06:27.955Z,13.80
2022-11-14T11:09:53.158Z,13.90
2022-11-14T11:12:55.648Z,13.90
2022-11-14T11:15:44.697Z,13.90
2022-11-14T11:18:39.662Z,14.00
2022-11-14T11:21:29.011Z,14.00
2022-11-14T11:24:40.540Z,14.10
2022-11-14T11:27:31.789Z,14.20
2022-11-14T11:30:23.513Z,14.20
2022-11-14T11:33:30.967Z,14.30
2022-11-14T11:36:23.274Z,14.30
2022-11-14T11:39:27.598Z,14.40
2022-11-14T11:43:23.816Z,14.40
2022-11-14T11:45:54.085Z,14.50
2022-11-14T11:48:47.448Z,14.60
2022-11-14T11:51:46.892Z,14.60
2022-11-14T11:54:54.662Z,14.60
2022-11-14T11:58:07.947Z,14.70
2022-11-14T12:00:57.940Z,14.80
2022-11-14T12:03:50.570Z,14.90
2022-11-14T12:07:03.740Z,14.90
2022-11-14T12:10:11.400Z,15.00
2022-11-14T12:13:37.155Z,15.10
2022-11-14T12:16:49.042Z,15.30
2022-11-14T12:19:59.332Z,15.40
2022-11-14T12:23:07.712Z,15.50
2022-11-14T12:26:14.617Z,15.70
2022-11-14T12:29:29.282Z,15.90
2022-11-14T12:32:35.390Z,16.20
2022-11-14T12:35:34.559Z,16.50
2022-11-14T12:38:25.583Z,17.00
2022-11-14T12:41:19.193Z,17.60
2022-11-14T12:44:33.193Z,19.20
2022-11-14T12:47:27.770Z,21.90
2022-11-14T12:50:51.620Z,24.60
2022-11-14T12:53:45.618Z,27.00
2022-11-14T12:56:37.896Z,28.50
2022-11-14T12:59:59.055Z,29.40
2022-11-14T13:03:06.545Z,29.90
2022-11-14T13:06:31.422Z,30.50
2022-11-14T13:09:54.073Z,30.70
2022-11-14T13:13:27.225Z,30.60
2022-11-14T13:16:48.554Z,30.90
2022-11-14T13:19:55.227Z,30.70
2022-11-14T13:22:49.655Z,29.20
2022-11-14T13:25:39.574Z,28.40
2022-11-14T13:28:38.652Z,28.40
2022-11-14T13:31:47.943Z,28.30
2022-11-14T13:34:49.364Z,28.10
2022-11-14T13:38:08.670Z,27.10
2022-11-14T13:41:48.354Z,25.60
2022-11-14T13:44:53.688Z,24.90
2022-11-14T13:48:12.700Z,24.30
2022-11-14T13:51:41.222Z,23.70
2022-11-14T13:54:21.444Z,23.30
2022-11-14T13:57:34.007Z,22.80
2022-11-14T14:00:25.003Z,22.50
2022-11-14T14:03:46.214Z,22.30
2022-11-14T14:07:16.659Z,22.00
2022-11-14T14:10:20.102Z,21.90
2022-11-14T14:13:29.738Z,21.80
2022-11-14T14:16:36.280Z,21.70
2022-11-14T14:19:32.757Z,21.60
2022-11-14T14:22:31.294Z,21.30
2022-11-14T14:25:42.376Z,21.00
2022-11-14T14:29:26.937Z,20.60
2022-11-14T14:32:18.095Z,20.30
2022-11-14T14:35:31.871Z,20.00
2022-11-14T14:38:28.313Z,19.80
2022-11-14T14:41:22.076Z,19.40
2022-11-14T14:44:36.039Z,19.00
2022-11-14T14:47:43.589Z,18.50
2022-11-14T14:50:46.992Z,18.10
2022-11-14T14:53:36.722Z,17.80
2022-11-14T14:56:29.055Z,17.50
2022-11-14T14:59:20.706Z,17.30
2022-11-14T15:02:17.444Z,17.10
2022-11-14T15:05:09.448Z,16.90
2022-11-14T15:08:00.726Z,16.80
2022-11-14T15:10:50.144Z,16.70
2022-11-14T15:13:38.889Z,16.60
2022-11-14T15:16:53.243Z,16.40
2022-11-14T15:19:43.355Z,16.40
2022-11-14T15:22:35.131Z,16.30
2022-11-14T15:25:23.159Z,16.20
2022-11-14T15:28:25.443Z,16.10
2022-11-14T15:31:35.955Z,16.10
2022-11-14T15:34:42.801Z,16.00
2022-11-14T15:40:41.116Z,15.80
2022-11-14T15:44:09.678Z,15.70
2022-11-14T15:47:00.235Z,15.70
2022-11-14T15:50:15.590Z,15.60
2022-11-14T15:53:26.533Z,15.50
2022-11-14T15:56:17.135Z,15.40
2022-11-14T15:59:11.133Z,15.40
2022-11-14T16:02:12.940Z,15.30
2022-11-14T16:05:00.992Z,15.30
2022-11-14T16:07:47.741Z,15.20
2022-11-14T16:10:34.967Z,15.20
2022-11-14T16:13:24.415Z,15.20
2022-11-14T16:16:14.568Z,15.10
2022-11-14T16:19:03.163Z,15.10
2022-11-14T16:21:55.356Z,15.00
2022-11-14T16:24:46.238Z,14.90
2022-11-14T16:27:33.795Z,14.90
2022-11-14T16:30:24.402Z,14.90
2022-11-14T16:33:13.255Z,14.80
2022-11-14T16:35:59.780Z,14.80
2022-11-14T16:38:52.566Z,14.70
2022-11-14T16:41:46.730Z,14.70
2022-11-14T16:44:41.167Z,14.70
2022-11-14T16:47:36.390Z,14.70
2022-11-14T16:50:27.439Z,14.70
2022-11-14T16:53:15.028Z,14.70
2022-11-14T16:56:04.914Z,14.70
2022-11-14T16:58:59.378Z,14.70
2022-11-14T17:02:10.186Z,14.70
2022-11-14T17:05:00.190Z,14.70
2022-11-14T17:07:49.132Z,14.70
2022-11-14T17:10:42.061Z,14.70
2022-11-14T17:13:32.704Z,14.70
2022-11-14T17:16:27.744Z,14.70
2022-11-14T17:19:19.484Z,14.70
2022-11-14T17:22:09.494Z,14.70
2022-11-14T17:24:58.393Z,14.60
2022-11-14T17:27:54.245Z,14.60
2022-11-14T17:30:42.621Z,14.60
2022-11-14T17:33:33.344Z,14.50
2022-11-14T17:36:33.899Z,14.50
2022-11-14T17:39:25.606Z,14.50
2022-11-14T17:42:14.663Z,14.50
2022-11-14T17:45:02.023Z,14.50
2022-11-14T17:47:51.763Z,14.50
2022-11-14T17:50:44.383Z,14.40
2022-11-14T17:53:34.760Z,14.40
2022-11-14T17:56:28.184Z,14.30
2022-11-14T17:59:15.475Z,14.30
2022-11-14T18:02:04.542Z,14.30
2022-11-14T18:04:53.955Z,14.30
2022-11-14T18:07:41.891Z,14.20
2022-11-14T18:10:32.566Z,14.20
2022-11-14T18:13:24.461Z,14.10
2022-11-14T18:16:19.920Z,14.00
2022-11-14T18:19:06.673Z,13.90
2022-11-14T18:22:15.104Z,14.00
2022-11-14T18:25:07.885Z,14.00
2022-11-14T18:27:55.892Z,13.90
2022-11-14T18:30:55.037Z,13.90
2022-11-14T18:33:44.908Z,13.90
2022-11-14T18:36:34.435Z,13.90
2022-11-14T18:39:22.403Z,13.90
2022-11-14T18:42:12.319Z,13.90
2022-11-14T18:44:58.981Z,13.80
2022-11-14T18:47:47.362Z,13.70
2022-11-14T18:50:39.656Z,13.60
2022-11-14T18:53:36.108Z,13.50
2022-11-14T18:56:28.557Z,13.40
2022-11-14T18:59:20.644Z,13.30
2022-11-14T19:02:09.314Z,13.40
2022-11-14T19:04:59.712Z,13.40
2022-11-14T19:07:52.181Z,13.30
2022-11-14T19:10:39.015Z,13.30
2022-11-14T19:13:31.213Z,13.20
2022-11-14T19:16:19.513Z,13.10
2022-11-14T19:19:11.086Z,13.20
2022-11-14T19:22:00.626Z,13.20
2022-11-14T19:24:49.837Z,13.20
2022-11-14T19:27:43.425Z,13.10
2022-11-14T19:30:34.241Z,13.10
2022-11-14T19:33:23.732Z,13.20
2022-11-14T19:36:57.636Z,13.20
2022-11-14T19:39:35.172Z,13.20
2022-11-14T19:45:27.239Z,13.20
2022-11-14T19:48:20.524Z,13.20
2022-11-14T19:51:22.919Z,13.20
2022-11-14T19:57:15.677Z,13.20
2022-11-14T20:00:07.740Z,13.20
2022-11-14T20:02:57.491Z,13.20
2022-11-14T20:05:58.515Z,13.20
2022-11-14T20:08:49.848Z,13.20
2022-11-14T20:11:39.882Z,13.20
2022-11-14T20:14:28.334Z,13.10
2022-11-14T20:17:21.705Z,13.00
2022-11-14T20:20:12.154Z,13.00
2022-11-14T20:23:01.404Z,13.00
2022-11-14T20:25:55.380Z,13.00
2022-11-14T20:28:47.923Z,13.00
2022-11-14T20:31:37.371Z,13.10
2022-11-14T20:34:27.102Z,13.10
2022-11-14T20:37:14.282Z,13.10
2022-11-14T20:40:05.585Z,13.00
2022-11-14T20:42:54.538Z,13.00
2022-11-14T20:45:44.967Z,13.00
2022-11-14T20:48:36.221Z,13.10
2022-11-14T20:54:29.549Z,12.90
2022-11-14T20:57:17.654Z,12.90
2022-11-14T21:00:12.298Z,12.80
2022-11-14T21:03:03.184Z,12.90
2022-11-14T21:05:56.615Z,12.90
2022-11-14T21:08:46.734Z,12.90
2022-11-14T21:11:36.133Z,12.90
2022-11-14T21:14:25.766Z,13.00
2022-11-14T21:17:13.072Z,12.90
2022-11-14T21:20:03.602Z,13.00
2022-11-14T21:22:56.365Z,13.00
2022-11-14T21:25:43.775Z,12.90
2022-11-14T21:28:32.936Z,12.90
2022-11-14T21:31:36.151Z,12.90
2022-11-14T21:34:25.700Z,12.90
2022-11-14T21:37:15.392Z,13.00
2022-11-14T21:40:04.988Z,13.00
2022-11-14T21:42:59.691Z,13.00
2022-11-14T21:46:15.028Z,12.90
2022-11-14T21:49:08.749Z,12.90
2022-11-14T21:51:59.911Z,12.80
2022-11-14T21:54:54.750Z,12.80
2022-11-14T21:57:43.482Z,12.80
2022-11-14T22:00:38.909Z,12.80
2022-11-14T22:03:46.744Z,12.70
2022-11-14T22:06:36.828Z,12.70
2022-11-14T22:09:31.151Z,12.70
2022-11-14T22:12:20.016Z,12.80
2022-11-14T22:15:10.261Z,12.80
2022-11-14T22:17:57.414Z,12.80
2022-11-14T22:20:58.970Z,12.80
2022-11-14T22:23:54.026Z,12.80
2022-11-14T22:26:44.699Z,12.80
2022-11-14T22:29:33.291Z,12.70
2022-11-14T22:32:24.911Z,12.80
2022-11-14T22:35:15.714Z,12.80
2022-11-14T22:38:02.198Z,12.80
2022-11-14T22:40:52.878Z,12.90
2022-11-14T22:43:41.567Z,12.80
2022-11-14T22:46:50.991Z,12.80
2022-11-14T22:49:41.598Z,12.80
2022-11-14T22:52:33.765Z,12.70
2022-11-14T22:55:24.572Z,12.70
2022-11-14T22:58:21.446Z,12.70
2022-11-14T23:01:13.427Z,12.70
2022-11-14T23:04:06.590Z,12.80
2022-11-14T23:06:58.486Z,12.80
2022-11-14T23:09:46.892Z,12.70
2022-11-14T23:12:35.375Z,12.80
2022-11-14T23:15:26.595Z,12.70
2022-11-14T23:18:15.780Z,12.70
2022-11-14T23:21:13.278Z,12.70
2022-11-14T23:24:06.558Z,12.70
2022-11-14T23:26:56.994Z,12.60
2022-11-14T23:29:45.252Z,12.40
2022-11-14T23:32:36.159Z,12.30
2022-11-14T23:35:26.675Z,12.30
2022-11-14T23:38:17.219Z,12.10
2022-11-14T23:41:08.986Z,12.10
2022-11-14T23:43:59.480Z,12.10
2022-11-14T23:46:49.034Z,12.10
2022-11-14T23:49:38.649Z,12.10
2022-11-14T23:52:31.007Z,12.10
2022-11-14T23:55:21.430Z,12.00
2022-11-14T23:58:11.853Z,11.90
